Glendale Luke AFB, Arizona
Current Conditions -  °F | °C
As of 12:58 AM on Friday 31 Oct 2014 (Local Time) from KLUF Reporting Station
Clear Clear  
Wind Chill: 67°   Ceiling: Unl
Heat Index: 67°   Visibility: 10mi
Dew Point: 42°   Wind: 7mph
Humidity: 40%   Direction: 340°NNW
Pressure: 29.9"   Gusts: NA
Location:  33.5402°N, 112.349°W
Report Text: KLUF 310758Z AUTO 34006KT 10SM CLR 20/06 A2990 RMK AO2 SLP114 T01960055 $
Loading
Personal Weather Stations






























Interactive Weather Map
Tropical Storm Tracking
New forecast layout! Learn more

10-Day Weather Forecast

Advertisements
Track Severe Weather on mobile